sensor_id;sensor_type;location;lat;lon;timestamp;temperature;humidity
32839;DHT22;19182;41.820;12.808;2023-03-13T00:01:42;10.30;99.90
32839;DHT22;19182;41.820;12.808;2023-03-13T00:04:09;10.30;99.90
32839;DHT22;19182;41.820;12.808;2023-03-13T00:06:39;10.40;99.90
32839;DHT22;19182;41.820;12.808;2023-03-13T00:09:08;10.40;99.90
32839;DHT22;19182;41.820;12.808;2023-03-13T00:11:36;10.50;99.90
32839;DHT22;19182;41.820;12.808;2023-03-13T00:14:04;10.30;99.90
32839;DHT22;19182;41.820;12.808;2023-03-13T00:16:34;10.30;99.90
32839;DHT22;19182;41.820;12.808;2023-03-13T00:19:03;10.30;99.90
32839;DHT22;19182;41.820;12.808;2023-03-13T00:21:31;10.40;99.90
32839;DHT22;19182;41.820;12.808;2023-03-13T00:23:58;10.30;99.90
32839;DHT22;19182;41.820;12.808;2023-03-13T00:26:28;10.30;99.90
32839;DHT22;19182;41.820;12.808;2023-03-13T00:28:55;10.30;99.90
32839;DHT22;19182;41.820;12.808;2023-03-13T00:31:23;10.10;99.90
32839;DHT22;19182;41.820;12.808;2023-03-13T00:33:53;10.40;99.90
32839;DHT22;19182;41.820;12.808;2023-03-13T00:36:23;10.40;99.90
32839;DHT22;19182;41.820;12.808;2023-03-13T00:38:50;10.50;99.90
32839;DHT22;19182;41.820;12.808;2023-03-13T00:41:19;10.30;99.90
32839;DHT22;19182;41.820;12.808;2023-03-13T00:43:46;10.60;99.90
32839;DHT22;19182;41.820;12.808;2023-03-13T00:46:13;10.60;99.90
32839;DHT22;19182;41.820;12.808;2023-03-13T00:48:39;10.60;99.90
32839;DHT22;19182;41.820;12.808;2023-03-13T00:51:05;9.10;99.90
32839;DHT22;19182;41.820;12.808;2023-03-13T00:53:31;10.30;99.90
32839;DHT22;19182;41.820;12.808;2023-03-13T00:56:02;10.30;99.90
32839;DHT22;19182;41.820;12.808;2023-03-13T00:58:30;10.30;99.90
32839;DHT22;19182;41.820;12.808;2023-03-13T01:01:04;10.30;99.90
32839;DHT22;19182;41.820;12.808;2023-03-13T01:03:30;10.40;99.90
32839;DHT22;19182;41.820;12.808;2023-03-13T01:06:00;10.30;99.90
32839;DHT22;19182;41.820;12.808;2023-03-13T01:08:26;10.30;99.90
32839;DHT22;19182;41.820;12.808;2023-03-13T01:11:13;10.20;99.90
32839;DHT22;19182;41.820;12.808;2023-03-13T01:13:39;10.20;99.90
32839;DHT22;19182;41.820;12.808;2023-03-13T01:18:35;10.10;99.90
32839;DHT22;19182;41.820;12.808;2023-03-13T01:21:02;10.10;99.90
32839;DHT22;19182;41.820;12.808;2023-03-13T01:23:29;10.10;99.90
32839;DHT22;19182;41.820;12.808;2023-03-13T01:25:55;10.10;99.90
32839;DHT22;19182;41.820;12.808;2023-03-13T01:28:23;10.00;99.90
32839;DHT22;19182;41.820;12.808;2023-03-13T01:30:50;9.90;99.90
32839;DHT22;19182;41.820;12.808;2023-03-13T01:33:16;9.90;99.90
32839;DHT22;19182;41.820;12.808;2023-03-13T01:35:43;9.90;99.90
32839;DHT22;19182;41.820;12.808;2023-03-13T01:38:12;10.00;99.90
32839;DHT22;19182;41.820;12.808;2023-03-13T01:40:51;10.00;99.90
32839;DHT22;19182;41.820;12.808;2023-03-13T01:43:20;9.90;99.90
32839;DHT22;19182;41.820;12.808;2023-03-13T01:46:00;10.00;99.90
32839;DHT22;19182;41.820;12.808;2023-03-13T01:51:41;10.00;99.90
32839;DHT22;19182;41.820;12.808;2023-03-13T01:56:46;9.70;99.90
32839;DHT22;19182;41.820;12.808;2023-03-13T01:59:17;9.60;99.90
32839;DHT22;19182;41.820;12.808;2023-03-13T02:01:46;9.50;99.90
32839;DHT22;19182;41.820;12.808;2023-03-13T02:04:15;9.40;99.90
32839;DHT22;19182;41.820;12.808;2023-03-13T02:06:44;9.40;99.90
32839;DHT22;19182;41.820;12.808;2023-03-13T02:09:16;9.30;99.90
32839;DHT22;19182;41.820;12.808;2023-03-13T02:11:54;9.20;99.90
32839;DHT22;19182;41.820;12.808;2023-03-13T02:14:26;9.10;99.90
32839;DHT22;19182;41.820;12.808;2023-03-13T02:16:53;9.10;99.90
32839;DHT22;19182;41.820;12.808;2023-03-13T02:19:32;9.00;99.90
32839;DHT22;19182;41.820;12.808;2023-03-13T02:27:23;8.90;99.90
32839;DHT22;19182;41.820;12.808;2023-03-13T02:29:50;8.90;99.90
32839;DHT22;19182;41.820;12.808;2023-03-13T02:32:16;8.70;99.90
32839;DHT22;19182;41.820;12.808;2023-03-13T02:34:44;8.70;99.90
32839;DHT22;19182;41.820;12.808;2023-03-13T02:37:12;8.70;99.90
32839;DHT22;19182;41.820;12.808;2023-03-13T02:39:43;8.70;99.90
32839;DHT22;19182;41.820;12.808;2023-03-13T02:42:11;8.60;99.90
32839;DHT22;19182;41.820;12.808;2023-03-13T02:44:41;8.60;99.90
32839;DHT22;19182;41.820;12.808;2023-03-13T02:47:16;8.60;99.90
32839;DHT22;19182;41.820;12.808;2023-03-13T02:49:42;8.50;99.90
32839;DHT22;19182;41.820;12.808;2023-03-13T02:52:20;8.30;99.90
32839;DHT22;19182;41.820;12.808;2023-03-13T02:54:51;8.20;99.90
32839;DHT22;19182;41.820;12.808;2023-03-13T02:57:19;8.30;99.90
32839;DHT22;19182;41.820;12.808;2023-03-13T02:59:45;8.40;99.90
32839;DHT22;19182;41.820;12.808;2023-03-13T03:02:11;8.50;99.90
32839;DHT22;19182;41.820;12.808;2023-03-13T03:04:37;8.50;99.90
32839;DHT22;19182;41.820;12.808;2023-03-13T03:07:03;8.70;99.90
32839;DHT22;19182;41.820;12.808;2023-03-13T03:09:29;8.70;99.90
32839;DHT22;19182;41.820;12.808;2023-03-13T03:11:55;8.60;99.90
32839;DHT22;19182;41.820;12.808;2023-03-13T03:14:21;8.70;99.90
32839;DHT22;19182;41.820;12.808;2023-03-13T03:16:47;8.70;99.90
32839;DHT22;19182;41.820;12.808;2023-03-13T03:19:13;8.80;99.90
32839;DHT22;19182;41.820;12.808;2023-03-13T03:21:39;8.80;99.90
32839;DHT22;19182;41.820;12.808;2023-03-13T03:24:05;8.90;99.90
32839;DHT22;19182;41.820;12.808;2023-03-13T03:26:31;8.90;99.90
32839;DHT22;19182;41.820;12.808;2023-03-13T03:28:57;9.10;99.90
32839;DHT22;19182;41.820;12.808;2023-03-13T03:31:26;9.20;99.90
32839;DHT22;19182;41.820;12.808;2023-03-13T03:33:52;9.40;99.90
32839;DHT22;19182;41.820;12.808;2023-03-13T03:36:20;9.50;99.90
32839;DHT22;19182;41.820;12.808;2023-03-13T03:38:46;9.50;99.90
32839;DHT22;19182;41.820;12.808;2023-03-13T03:41:13;9.60;99.90
32839;DHT22;19182;41.820;12.808;2023-03-13T03:43:39;9.50;99.90
32839;DHT22;19182;41.820;12.808;2023-03-13T03:46:06;9.60;99.90
32839;DHT22;19182;41.820;12.808;2023-03-13T03:48:32;9.60;99.90
32839;DHT22;19182;41.820;12.808;2023-03-13T03:50:58;9.60;99.90
32839;DHT22;19182;41.820;12.808;2023-03-13T03:53:24;9.50;99.90
32839;DHT22;19182;41.820;12.808;2023-03-13T03:55:51;9.60;99.90
32839;DHT22;19182;41.820;12.808;2023-03-13T03:58:17;9.60;99.90
32839;DHT22;19182;41.820;12.808;2023-03-13T04:00:45;9.40;99.90
32839;DHT22;19182;41.820;12.808;2023-03-13T04:03:14;9.40;99.90
32839;DHT22;19182;41.820;12.808;2023-03-13T04:05:42;9.30;99.90
32839;DHT22;19182;41.820;12.808;2023-03-13T04:08:10;9.40;99.90
32839;DHT22;19182;41.820;12.808;2023-03-13T04:10:36;9.50;99.90
32839;DHT22;19182;41.820;12.808;2023-03-13T04:13:01;9.50;99.90
32839;DHT22;19182;41.820;12.808;2023-03-13T04:15:27;9.40;99.90
32839;DHT22;19182;41.820;12.808;2023-03-13T04:17:53;9.30;99.90
32839;DHT22;19182;41.820;12.808;2023-03-13T04:20:19;9.20;99.90
32839;DHT22;19182;41.820;12.808;2023-03-13T04:22:45;9.30;99.90
32839;DHT22;19182;41.820;12.808;2023-03-13T04:25:11;9.20;99.90
32839;DHT22;19182;41.820;12.808;2023-03-13T04:27:38;9.10;99.90
32839;DHT22;19182;41.820;12.808;2023-03-13T04:30:04;8.60;99.90
32839;DHT22;19182;41.820;12.808;2023-03-13T04:32:34;9.00;99.90
32839;DHT22;19182;41.820;12.808;2023-03-13T04:35:00;9.10;99.90
32839;DHT22;19182;41.820;12.808;2023-03-13T04:37:26;9.20;99.90
32839;DHT22;19182;41.820;12.808;2023-03-13T04:39:51;9.20;99.90
32839;DHT22;19182;41.820;12.808;2023-03-13T04:42:17;9.30;99.90
32839;DHT22;19182;41.820;12.808;2023-03-13T04:44:43;9.40;99.90
32839;DHT22;19182;41.820;12.808;2023-03-13T04:47:09;9.30;99.90
32839;DHT22;19182;41.820;12.808;2023-03-13T04:49:36;9.30;99.90
32839;DHT22;19182;41.820;12.808;2023-03-13T04:52:05;9.30;99.90
32839;DHT22;19182;41.820;12.808;2023-03-13T04:54:34;9.30;99.90
32839;DHT22;19182;41.820;12.808;2023-03-13T04:57:00;9.30;99.90
32839;DHT22;19182;41.820;12.808;2023-03-13T04:59:26;9.20;99.90
32839;DHT22;19182;41.820;12.808;2023-03-13T05:01:52;9.20;99.90
32839;DHT22;19182;41.820;12.808;2023-03-13T05:04:20;9.20;99.90
32839;DHT22;19182;41.820;12.808;2023-03-13T05:06:49;9.20;99.90
32839;DHT22;19182;41.820;12.808;2023-03-13T05:09:14;9.20;99.90
32839;DHT22;19182;41.820;12.808;2023-03-13T05:11:40;9.30;99.90
32839;DHT22;19182;41.820;12.808;2023-03-13T05:14:07;9.20;99.90
32839;DHT22;19182;41.820;12.808;2023-03-13T05:16:36;9.10;99.90
32839;DHT22;19182;41.820;12.808;2023-03-13T05:19:02;9.10;99.90
32839;DHT22;19182;41.820;12.808;2023-03-13T05:21:27;9.10;99.90
32839;DHT22;19182;41.820;12.808;2023-03-13T05:23:53;9.00;99.90
32839;DHT22;19182;41.820;12.808;2023-03-13T05:26:19;9.10;99.90
32839;DHT22;19182;41.820;12.808;2023-03-13T05:28:51;9.00;99.90
32839;DHT22;19182;41.820;12.808;2023-03-13T05:31:17;9.00;99.90
32839;DHT22;19182;41.820;12.808;2023-03-13T05:33:43;9.00;99.90
32839;DHT22;19182;41.820;12.808;2023-03-13T05:36:09;9.00;99.90
32839;DHT22;19182;41.820;12.808;2023-03-13T05:38:34;9.00;99.90
32839;DHT22;19182;41.820;12.808;2023-03-13T05:41:00;9.00;99.90
32839;DHT22;19182;41.820;12.808;2023-03-13T05:43:26;9.00;99.90
32839;DHT22;19182;41.820;12.808;2023-03-13T05:45:52;9.00;99.90
32839;DHT22;19182;41.820;12.808;2023-03-13T05:48:18;9.00;99.90
32839;DHT22;19182;41.820;12.808;2023-03-13T05:50:46;9.10;99.90
32839;DHT22;19182;41.820;12.808;2023-03-13T05:53:13;9.20;99.90
32839;DHT22;19182;41.820;12.808;2023-03-13T05:55:39;9.20;99.90
32839;DHT22;19182;41.820;12.808;2023-03-13T05:58:06;9.30;99.90
32839;DHT22;19182;41.820;12.808;2023-03-13T06:00:32;9.30;99.90
32839;DHT22;19182;41.820;12.808;2023-03-13T06:02:58;9.40;99.90
32839;DHT22;19182;41.820;12.808;2023-03-13T06:05:23;9.50;99.90
32839;DHT22;19182;41.820;12.808;2023-03-13T06:07:50;9.50;99.90
32839;DHT22;19182;41.820;12.808;2023-03-13T06:10:16;9.60;99.90
32839;DHT22;19182;41.820;12.808;2023-03-13T06:12:42;9.70;99.90
32839;DHT22;19182;41.820;12.808;2023-03-13T06:15:08;9.60;99.90
32839;DHT22;19182;41.820;12.808;2023-03-13T06:17:35;9.60;99.90
32839;DHT22;19182;41.820;12.808;2023-03-13T06:20:02;9.80;99.90
32839;DHT22;19182;41.820;12.808;2023-03-13T06:22:35;9.80;99.90
32839;DHT22;19182;41.820;12.808;2023-03-13T06:25:01;9.90;99.90
32839;DHT22;19182;41.820;12.808;2023-03-13T06:27:27;10.00;99.90
32839;DHT22;19182;41.820;12.808;2023-03-13T06:29:53;10.20;99.90
32839;DHT22;19182;41.820;12.808;2023-03-13T06:32:19;10.20;99.90
32839;DHT22;19182;41.820;12.808;2023-03-13T06:34:45;10.30;99.90
32839;DHT22;19182;41.820;12.808;2023-03-13T06:37:11;10.50;99.90
32839;DHT22;19182;41.820;12.808;2023-03-13T06:39:37;10.60;99.90
32839;DHT22;19182;41.820;12.808;2023-03-13T06:42:04;10.80;99.90
32839;DHT22;19182;41.820;12.808;2023-03-13T06:44:30;11.40;99.90
32839;DHT22;19182;41.820;12.808;2023-03-13T06:46:56;12.00;99.90
32839;DHT22;19182;41.820;12.808;2023-03-13T06:49:22;12.50;99.90
32839;DHT22;19182;41.820;12.808;2023-03-13T06:51:48;13.40;99.90
32839;DHT22;19182;41.820;12.808;2023-03-13T06:54:14;13.90;99.90
32839;DHT22;19182;41.820;12.808;2023-03-13T06:56:45;14.40;99.90
32839;DHT22;19182;41.820;12.808;2023-03-13T06:59:11;14.90;99.90
32839;DHT22;19182;41.820;12.808;2023-03-13T07:01:37;14.60;99.90
32839;DHT22;19182;41.820;12.808;2023-03-13T07:04:03;15.00;99.90
32839;DHT22;19182;41.820;12.808;2023-03-13T07:06:28;15.40;99.90
32839;DHT22;19182;41.820;12.808;2023-03-13T07:08:54;15.50;99.90
32839;DHT22;19182;41.820;12.808;2023-03-13T07:11:20;15.70;99.90
32839;DHT22;19182;41.820;12.808;2023-03-13T07:13:46;16.00;99.90
32839;DHT22;19182;41.820;12.808;2023-03-13T07:16:13;16.10;99.90
32839;DHT22;19182;41.820;12.808;2023-03-13T07:18:40;16.10;99.90
32839;DHT22;19182;41.820;12.808;2023-03-13T07:21:06;16.40;99.90
32839;DHT22;19182;41.820;12.808;2023-03-13T07:23:34;16.80;99.90
32839;DHT22;19182;41.820;12.808;2023-03-13T07:26:07;16.10;99.90
32839;DHT22;19182;41.820;12.808;2023-03-13T07:28:33;16.90;99.90
32839;DHT22;19182;41.820;12.808;2023-03-13T07:31:13;16.90;99.90
32839;DHT22;19182;41.820;12.808;2023-03-13T07:33:40;16.90;99.90
32839;DHT22;19182;41.820;12.808;2023-03-13T07:36:09;17.00;99.90
32839;DHT22;19182;41.820;12.808;2023-03-13T07:38:35;17.00;99.90
32839;DHT22;19182;41.820;12.808;2023-03-13T07:41:01;17.00;99.90
32839;DHT22;19182;41.820;12.808;2023-03-13T07:43:27;17.40;99.90
32839;DHT22;19182;41.820;12.808;2023-03-13T07:46:16;18.00;99.90
32839;DHT22;19182;41.820;12.808;2023-03-13T07:48:46;17.80;99.90
32839;DHT22;19182;41.820;12.808;2023-03-13T07:51:21;18.30;99.90
32839;DHT22;19182;41.820;12.808;2023-03-13T07:53:49;18.40;99.90
32839;DHT22;19182;41.820;12.808;2023-03-13T07:56:18;18.60;99.90
32839;DHT22;19182;41.820;12.808;2023-03-13T07:59:05;18.60;99.90
32839;DHT22;19182;41.820;12.808;2023-03-13T08:01:43;18.80;99.90
32839;DHT22;19182;41.820;12.808;2023-03-13T08:04:12;18.70;99.90
32839;DHT22;19182;41.820;12.808;2023-03-13T08:06:45;18.30;99.90
32839;DHT22;19182;41.820;12.808;2023-03-13T08:09:11;17.70;99.90
32839;DHT22;19182;41.820;12.808;2023-03-13T08:11:38;17.30;99.90
32839;DHT22;19182;41.820;12.808;2023-03-13T08:14:09;16.70;99.90
32839;DHT22;19182;41.820;12.808;2023-03-13T08:16:35;17.30;99.90
32839;DHT22;19182;41.820;12.808;2023-03-13T08:19:02;17.60;99.90
32839;DHT22;19182;41.820;12.808;2023-03-13T08:21:32;17.90;99.90
32839;DHT22;19182;41.820;12.808;2023-03-13T08:24:01;17.80;99.90
32839;DHT22;19182;41.820;12.808;2023-03-13T08:26:29;17.60;99.90
32839;DHT22;19182;41.820;12.808;2023-03-13T08:28:57;17.60;99.90
32839;DHT22;19182;41.820;12.808;2023-03-13T08:31:47;17.90;99.90
32839;DHT22;19182;41.820;12.808;2023-03-13T08:34:15;18.20;99.90
32839;DHT22;19182;41.820;12.808;2023-03-13T08:36:42;18.60;99.90
32839;DHT22;19182;41.820;12.808;2023-03-13T08:39:13;19.00;99.90
32839;DHT22;19182;41.820;12.808;2023-03-13T08:41:39;19.50;99.90
32839;DHT22;19182;41.820;12.808;2023-03-13T08:44:06;19.30;99.90
32839;DHT22;19182;41.820;12.808;2023-03-13T08:46:35;19.30;99.90
32839;DHT22;19182;41.820;12.808;2023-03-13T08:49:01;19.20;99.90
32839;DHT22;19182;41.820;12.808;2023-03-13T08:51:27;19.20;99.90
32839;DHT22;19182;41.820;12.808;2023-03-13T08:53:54;19.30;99.90
32839;DHT22;19182;41.820;12.808;2023-03-13T08:56:26;19.40;99.90
32839;DHT22;19182;41.820;12.808;2023-03-13T08:59:03;19.80;99.90
32839;DHT22;19182;41.820;12.808;2023-03-13T09:01:31;19.90;99.90
32839;DHT22;19182;41.820;12.808;2023-03-13T09:03:58;19.80;99.90
32839;DHT22;19182;41.820;12.808;2023-03-13T09:06:25;20.30;99.90
32839;DHT22;19182;41.820;12.808;2023-03-13T09:08:51;20.30;99.90
32839;DHT22;19182;41.820;12.808;2023-03-13T09:11:19;20.10;99.90
32839;DHT22;19182;41.820;12.808;2023-03-13T09:13:47;20.20;99.90
32839;DHT22;19182;41.820;12.808;2023-03-13T09:16:22;20.00;99.90
32839;DHT22;19182;41.820;12.808;2023-03-13T09:18:58;20.10;99.90
32839;DHT22;19182;41.820;12.808;2023-03-13T09:21:27;20.20;99.90
32839;DHT22;19182;41.820;12.808;2023-03-13T09:23:53;20.40;99.90
32839;DHT22;19182;41.820;12.808;2023-03-13T09:26:19;19.80;99.90
32839;DHT22;19182;41.820;12.808;2023-03-13T09:28:56;19.80;99.90
32839;DHT22;19182;41.820;12.808;2023-03-13T09:31:28;20.40;99.90
32839;DHT22;19182;41.820;12.808;2023-03-13T09:33:54;21.10;99.90
32839;DHT22;19182;41.820;12.808;2023-03-13T09:36:20;21.20;99.90
32839;DHT22;19182;41.820;12.808;2023-03-13T09:38:49;21.10;99.90
32839;DHT22;19182;41.820;12.808;2023-03-13T09:44:07;22.20;99.90
32839;DHT22;19182;41.820;12.808;2023-03-13T09:49:34;21.90;99.90
32839;DHT22;19182;41.820;12.808;2023-03-13T09:52:36;22.60;99.90
32839;DHT22;19182;41.820;12.808;2023-03-13T09:55:13;22.70;99.90
32839;DHT22;19182;41.820;12.808;2023-03-13T09:57:55;23.00;99.90
32839;DHT22;19182;41.820;12.808;2023-03-13T10:00:28;22.80;99.90
32839;DHT22;19182;41.820;12.808;2023-03-13T10:05:32;23.00;99.90
32839;DHT22;19182;41.820;12.808;2023-03-13T10:08:16;23.10;99.90
32839;DHT22;19182;41.820;12.808;2023-03-13T10:13:50;23.90;99.90
32839;DHT22;19182;41.820;12.808;2023-03-13T10:16:41;24.40;99.90
32839;DHT22;19182;41.820;12.808;2023-03-13T10:19:25;24.70;99.90
32839;DHT22;19182;41.820;12.808;2023-03-13T10:21:53;24.30;99.90
32839;DHT22;19182;41.820;12.808;2023-03-13T10:24:50;24.80;99.90
32839;DHT22;19182;41.820;12.808;2023-03-13T10:27:19;25.20;99.90
32839;DHT22;19182;41.820;12.808;2023-03-13T10:29:44;25.50;99.90
32839;DHT22;19182;41.820;12.808;2023-03-13T10:32:15;25.60;99.90
32839;DHT22;19182;41.820;12.808;2023-03-13T10:34:58;25.50;99.90
32839;DHT22;19182;41.820;12.808;2023-03-13T10:37:49;25.40;99.90
32839;DHT22;19182;41.820;12.808;2023-03-13T10:40:30;25.30;99.90
32839;DHT22;19182;41.820;12.808;2023-03-13T10:43:06;25.40;99.90
32839;DHT22;19182;41.820;12.808;2023-03-13T10:45:37;25.10;99.90
32839;DHT22;19182;41.820;12.808;2023-03-13T10:50:41;25.40;99.90
32839;DHT22;19182;41.820;12.808;2023-03-13T10:56:15;25.90;99.90
32839;DHT22;19182;41.820;12.808;2023-03-13T10:58:47;26.30;99.90
32839;DHT22;19182;41.820;12.808;2023-03-13T11:01:39;26.60;99.90
32839;DHT22;19182;41.820;12.808;2023-03-13T11:04:27;26.40;99.90
32839;DHT22;19182;41.820;12.808;2023-03-13T11:07:01;26.20;99.90
32839;DHT22;19182;41.820;12.808;2023-03-13T11:09:27;26.50;99.90
32839;DHT22;19182;41.820;12.808;2023-03-13T11:11:55;26.20;99.90
32839;DHT22;19182;41.820;12.808;2023-03-13T11:14:25;26.50;99.90
32839;DHT22;19182;41.820;12.808;2023-03-13T11:17:07;26.10;99.50
32839;DHT22;19182;41.820;12.808;2023-03-13T11:25:33;26.60;99.90
32839;DHT22;19182;41.820;12.808;2023-03-13T11:28:19;26.90;99.90
32839;DHT22;19182;41.820;12.808;2023-03-13T11:31:06;27.40;97.70
32839;DHT22;19182;41.820;12.808;2023-03-13T11:45:02;25.50;99.20
32839;DHT22;19182;41.820;12.808;2023-03-13T11:50:30;25.80;99.60
32839;DHT22;19182;41.820;12.808;2023-03-13T11:53:26;25.90;99.50
32839;DHT22;19182;41.820;12.808;2023-03-13T11:56:14;25.90;98.80
32839;DHT22;19182;41.820;12.808;2023-03-13T11:59:24;25.30;98.10
32839;DHT22;19182;41.820;12.808;2023-03-13T12:02:22;24.30;99.70
32839;DHT22;19182;41.820;12.808;2023-03-13T12:05:13;24.10;99.90
32839;DHT22;19182;41.820;12.808;2023-03-13T12:08:08;23.90;99.90
32839;DHT22;19182;41.820;12.808;2023-03-13T12:13:57;23.40;99.90
32839;DHT22;19182;41.820;12.808;2023-03-13T12:16:30;24.10;99.90
32839;DHT22;19182;41.820;12.808;2023-03-13T12:19:01;24.50;99.90
32839;DHT22;19182;41.820;12.808;2023-03-13T12:21:32;24.70;99.90
32839;DHT22;19182;41.820;12.808;2023-03-13T12:24:12;24.80;99.90
32839;DHT22;19182;41.820;12.808;2023-03-13T12:26:46;24.40;98.90
32839;DHT22;19182;41.820;12.808;2023-03-13T12:29:37;24.40;99.90
32839;DHT22;19182;41.820;12.808;2023-03-13T12:34:59;24.90;99.90
32839;DHT22;19182;41.820;12.808;2023-03-13T12:37:52;25.50;99.00
32839;DHT22;19182;41.820;12.808;2023-03-13T12:40:26;25.70;97.90
32839;DHT22;19182;41.820;12.808;2023-03-13T13:00:35;25.20;99.00
32839;DHT22;19182;41.820;12.808;2023-03-13T13:05:35;25.10;98.10
32839;DHT22;19182;41.820;12.808;2023-03-13T13:08:01;24.60;98.30
32839;DHT22;19182;41.820;12.808;2023-03-13T13:10:28;24.10;99.30
32839;DHT22;19182;41.820;12.808;2023-03-13T13:15:59;23.70;99.90
32839;DHT22;19182;41.820;12.808;2023-03-13T13:21:26;23.50;99.90
32839;DHT22;19182;41.820;12.808;2023-03-13T13:26:58;23.30;99.90
32839;DHT22;19182;41.820;12.808;2023-03-13T13:45:37;23.60;99.90
32839;DHT22;19182;41.820;12.808;2023-03-13T13:48:25;23.30;99.90
32839;DHT22;19182;41.820;12.808;2023-03-13T13:53:58;22.70;99.90
32839;DHT22;19182;41.820;12.808;2023-03-13T13:56:41;22.70;99.90
32839;DHT22;19182;41.820;12.808;2023-03-13T14:01:48;22.00;99.90
32839;DHT22;19182;41.820;12.808;2023-03-13T14:04:29;22.00;99.90
32839;DHT22;19182;41.820;12.808;2023-03-13T14:07:01;21.90;99.90
32839;DHT22;19182;41.820;12.808;2023-03-13T14:09:30;22.10;99.90
32839;DHT22;19182;41.820;12.808;2023-03-13T14:11:57;22.30;99.90
32839;DHT22;19182;41.820;12.808;2023-03-13T14:14:23;22.00;99.90
32839;DHT22;19182;41.820;12.808;2023-03-13T14:16:51;21.80;99.90
32839;DHT22;19182;41.820;12.808;2023-03-13T14:22:17;21.60;99.90
32839;DHT22;19182;41.820;12.808;2023-03-13T14:24:55;21.60;99.90
32839;DHT22;19182;41.820;12.808;2023-03-13T14:27:21;21.70;99.90
32839;DHT22;19182;41.820;12.808;2023-03-13T14:30:04;21.50;99.90
32839;DHT22;19182;41.820;12.808;2023-03-13T14:32:30;21.40;99.90
32839;DHT22;19182;41.820;12.808;2023-03-13T14:34:56;21.20;99.90
32839;DHT22;19182;41.820;12.808;2023-03-13T14:37:40;21.20;99.90
32839;DHT22;19182;41.820;12.808;2023-03-13T14:40:09;21.20;99.90
32839;DHT22;19182;41.820;12.808;2023-03-13T14:42:47;21.10;99.90
32839;DHT22;19182;41.820;12.808;2023-03-13T14:45:22;21.00;99.90
32839;DHT22;19182;41.820;12.808;2023-03-13T14:47:50;21.00;99.90
32839;DHT22;19182;41.820;12.808;2023-03-13T14:50:17;20.80;99.90
32839;DHT22;19182;41.820;12.808;2023-03-13T14:52:46;20.80;99.90
32839;DHT22;19182;41.820;12.808;2023-03-13T15:00:48;20.60;99.90
32839;DHT22;19182;41.820;12.808;2023-03-13T15:08:15;20.30;99.90
32839;DHT22;19182;41.820;12.808;2023-03-13T15:10:42;20.20;99.90
32839;DHT22;19182;41.820;12.808;2023-03-13T15:13:27;20.10;99.90
32839;DHT22;19182;41.820;12.808;2023-03-13T15:15:57;20.00;99.90
32839;DHT22;19182;41.820;12.808;2023-03-13T15:18:28;20.00;99.90
32839;DHT22;19182;41.820;12.808;2023-03-13T15:20:56;19.90;99.90
32839;DHT22;19182;41.820;12.808;2023-03-13T15:23:22;19.80;99.90
32839;DHT22;19182;41.820;12.808;2023-03-13T15:25:49;19.70;99.90
32839;DHT22;19182;41.820;12.808;2023-03-13T15:28:38;19.80;99.90
32839;DHT22;19182;41.820;12.808;2023-03-13T15:31:03;19.70;99.90
32839;DHT22;19182;41.820;12.808;2023-03-13T15:33:29;19.60;99.90
32839;DHT22;19182;41.820;12.808;2023-03-13T15:35:55;19.60;99.90
32839;DHT22;19182;41.820;12.808;2023-03-13T15:38:24;19.50;99.90
32839;DHT22;19182;41.820;12.808;2023-03-13T15:40:50;19.40;99.90
32839;DHT22;19182;41.820;12.808;2023-03-13T15:43:16;19.40;99.90
32839;DHT22;19182;41.820;12.808;2023-03-13T15:45:44;19.30;99.90
32839;DHT22;19182;41.820;12.808;2023-03-13T15:50:48;19.10;99.90
32839;DHT22;19182;41.820;12.808;2023-03-13T15:53:16;19.00;99.90
32839;DHT22;19182;41.820;12.808;2023-03-13T15:55:42;18.90;99.90
32839;DHT22;19182;41.820;12.808;2023-03-13T15:58:10;18.80;99.90
32839;DHT22;19182;41.820;12.808;2023-03-13T16:00:39;18.80;99.90
32839;DHT22;19182;41.820;12.808;2023-03-13T16:03:05;18.70;99.90
32839;DHT22;19182;41.820;12.808;2023-03-13T16:05:30;18.60;99.90
32839;DHT22;19182;41.820;12.808;2023-03-13T16:07:56;18.60;99.90
32839;DHT22;19182;41.820;12.808;2023-03-13T16:10:27;18.60;99.90
32839;DHT22;19182;41.820;12.808;2023-03-13T16:12:54;18.50;99.90
32839;DHT22;19182;41.820;12.808;2023-03-13T16:15:20;18.60;99.90
32839;DHT22;19182;41.820;12.808;2023-03-13T16:17:46;18.50;99.90
32839;DHT22;19182;41.820;12.808;2023-03-13T16:20:33;18.30;99.90
32839;DHT22;19182;41.820;12.808;2023-03-13T16:22:59;18.20;99.90
32839;DHT22;19182;41.820;12.808;2023-03-13T16:25:29;18.00;99.90
32839;DHT22;19182;41.820;12.808;2023-03-13T16:27:56;17.90;99.90
32839;DHT22;19182;41.820;12.808;2023-03-13T16:30:26;17.80;99.90
32839;DHT22;19182;41.820;12.808;2023-03-13T16:32:51;17.70;99.90
32839;DHT22;19182;41.820;12.808;2023-03-13T16:35:17;17.60;99.90
32839;DHT22;19182;41.820;12.808;2023-03-13T16:37:43;17.50;99.90
32839;DHT22;19182;41.820;12.808;2023-03-13T16:40:17;17.40;99.90
32839;DHT22;19182;41.820;12.808;2023-03-13T16:42:43;17.30;99.90
32839;DHT22;19182;41.820;12.808;2023-03-13T16:45:10;17.30;99.90
32839;DHT22;19182;41.820;12.808;2023-03-13T16:47:36;17.20;99.90
32839;DHT22;19182;41.820;12.808;2023-03-13T16:50:36;17.10;99.90
32839;DHT22;19182;41.820;12.808;2023-03-13T16:52:55;17.10;99.90
32839;DHT22;19182;41.820;12.808;2023-03-13T16:55:22;17.10;99.90
32839;DHT22;19182;41.820;12.808;2023-03-13T16:57:56;17.00;99.90
32839;DHT22;19182;41.820;12.808;2023-03-13T17:00:23;16.90;99.90
32839;DHT22;19182;41.820;12.808;2023-03-13T17:02:50;16.80;99.90
32839;DHT22;19182;41.820;12.808;2023-03-13T17:05:16;16.80;99.90
32839;DHT22;19182;41.820;12.808;2023-03-13T17:07:46;16.60;99.90
32839;DHT22;19182;41.820;12.808;2023-03-13T17:10:29;16.50;99.90
32839;DHT22;19182;41.820;12.808;2023-03-13T17:12:55;16.40;99.90
32839;DHT22;19182;41.820;12.808;2023-03-13T17:15:22;16.30;99.90
32839;DHT22;19182;41.820;12.808;2023-03-13T17:17:49;16.30;99.90
32839;DHT22;19182;41.820;12.808;2023-03-13T17:20:24;16.20;99.90
32839;DHT22;19182;41.820;12.808;2023-03-13T17:22:49;16.10;99.90
32839;DHT22;19182;41.820;12.808;2023-03-13T17:25:15;16.10;99.90
32839;DHT22;19182;41.820;12.808;2023-03-13T17:27:42;16.00;99.90
32839;DHT22;19182;41.820;12.808;2023-03-13T17:30:26;15.90;99.90
32839;DHT22;19182;41.820;12.808;2023-03-13T17:32:52;15.80;99.90
32839;DHT22;19182;41.820;12.808;2023-03-13T17:35:18;15.80;99.90
32839;DHT22;19182;41.820;12.808;2023-03-13T17:37:45;15.60;99.90
32839;DHT22;19182;41.820;12.808;2023-03-13T17:40:23;15.40;99.90
32839;DHT22;19182;41.820;12.808;2023-03-13T17:42:48;15.20;99.90